Etusivu
METAR-TAF:

METAR-TAF

Lentoasemat :

Jällivaara, Ruotsi

Jällivaaran lentoasema

Leveyspiiri: 67-09N, Pituuspiiri: 020-39E, korkeus merenpinnasta: 359 m

Tämänhetkinen sää

Tämä raportti tehtiin 19 minuuttia sitten, kello 06.20 UTC
Tuuli 6 kn koillisesta
Lämpötila 7°C
Kosteus 87%
Ilmanpaine 1013 hPa
Näkyvyys 10 km tai enemmän
Pilvistä 900 ft:n korkeudessa
tihkusadetta

METAR: ESNG 240620Z 05006KT 9999 DZ OVC009 07/05 Q1013

Aika: 08:39 (06:39 UTC)

Sääennuste

Tämä raportti tehtiin 1 tunti ja 9 minuuttia sitten, kello 05.30 UTC
Ennuste voimassa 24. päivästä klo 06 UTC - 24. päivään klo 11 UTC
Tuuli 7 kn pohjoisesta/koillisesta
Näkyvyys 10 km tai enemmän
Pilvistä 1000 ft:n korkeudessa
Ajoittain
24. päivästä klo 06 UTC - 24. päivään klo 11 UTC
Näkyvyys: 3000 m
Hajonneita pilviä 400 ft:n korkeudessa
sadetta, tihkusadetta

TAF: ESNG 240530Z 2406/2411 03007KT 9999 OVC010 TEMPO 2406/2411 3000 RADZ BKN004

Säähavainnot ja -ennusteet yli 4000 lentoasemalta (METAR- ja TAF-raportit).

Käytössä olevat sääasemat on merkitty karttaan keltaisilla ja punaisilla pisteillä.

Aseta hiiri pisteen päälle nähdäksesi sääaseman nimen.

Klikkaa sitten nähdäksesi säähavainnot ja -ennusteet.

Kartan vaihtaminen: klikkaa mustalla rastilla varustettuja vihreitä pisteitä, niin voit zoomata sisään; viivalla varustettua vihreää pistettä, niin voit zoomata ulos tai vihreitä nuolia, niin pääset viereisille kartoille.


METAR-TAF: